sensor_id;sensor_type;location;lat;lon;timestamp;temperature;humidity
48666;DHT22;34452;50.796;4.994;2023-07-13T00:01:13;16.30;99.90
48666;DHT22;34452;50.796;4.994;2023-07-13T00:03:38;16.30;99.90
48666;DHT22;34452;50.796;4.994;2023-07-13T00:06:07;16.30;99.90
48666;DHT22;34452;50.796;4.994;2023-07-13T00:08:33;16.30;99.90
48666;DHT22;34452;50.796;4.994;2023-07-13T00:11:00;16.30;99.90
48666;DHT22;34452;50.796;4.994;2023-07-13T00:13:26;16.20;99.90
48666;DHT22;34452;50.796;4.994;2023-07-13T00:15:53;16.10;99.90
48666;DHT22;34452;50.796;4.994;2023-07-13T00:18:20;16.10;99.90
48666;DHT22;34452;50.796;4.994;2023-07-13T00:20:46;16.10;99.90
48666;DHT22;34452;50.796;4.994;2023-07-13T00:23:12;16.00;99.90
48666;DHT22;34452;50.796;4.994;2023-07-13T00:25:37;16.00;99.90
48666;DHT22;34452;50.796;4.994;2023-07-13T00:28:04;16.00;99.90
48666;DHT22;34452;50.796;4.994;2023-07-13T00:30:29;15.90;99.90
48666;DHT22;34452;50.796;4.994;2023-07-13T00:32:55;15.90;99.90
48666;DHT22;34452;50.796;4.994;2023-07-13T00:35:21;15.90;99.90
48666;DHT22;34452;50.796;4.994;2023-07-13T00:37:46;15.90;99.90
48666;DHT22;34452;50.796;4.994;2023-07-13T00:40:14;15.90;99.90
48666;DHT22;34452;50.796;4.994;2023-07-13T00:42:40;15.90;99.90
48666;DHT22;34452;50.796;4.994;2023-07-13T00:47:50;15.90;99.90
48666;DHT22;34452;50.796;4.994;2023-07-13T00:50:16;15.80;99.90
48666;DHT22;34452;50.796;4.994;2023-07-13T00:52:46;15.80;99.90
48666;DHT22;34452;50.796;4.994;2023-07-13T00:55:14;15.70;99.90
48666;DHT22;34452;50.796;4.994;2023-07-13T00:57:41;15.70;99.90
48666;DHT22;34452;50.796;4.994;2023-07-13T01:00:07;15.60;99.90
48666;DHT22;34452;50.796;4.994;2023-07-13T01:02:38;15.60;99.90
48666;DHT22;34452;50.796;4.994;2023-07-13T01:05:23;15.60;99.90
48666;DHT22;34452;50.796;4.994;2023-07-13T01:07:51;15.60;99.90
48666;DHT22;34452;50.796;4.994;2023-07-13T01:10:20;15.50;99.90
48666;DHT22;34452;50.796;4.994;2023-07-13T01:12:46;15.40;99.90
48666;DHT22;34452;50.796;4.994;2023-07-13T01:17:58;15.30;99.90
48666;DHT22;34452;50.796;4.994;2023-07-13T01:20:24;15.30;99.90
48666;DHT22;34452;50.796;4.994;2023-07-13T01:22:50;15.20;99.90
48666;DHT22;34452;50.796;4.994;2023-07-13T01:25:16;15.30;99.90
48666;DHT22;34452;50.796;4.994;2023-07-13T01:27:42;15.30;99.90
48666;DHT22;34452;50.796;4.994;2023-07-13T01:30:08;15.30;99.90
48666;DHT22;34452;50.796;4.994;2023-07-13T01:32:35;15.40;99.90
48666;DHT22;34452;50.796;4.994;2023-07-13T01:35:02;15.30;99.90
48666;DHT22;34452;50.796;4.994;2023-07-13T01:37:29;15.40;99.90
48666;DHT22;34452;50.796;4.994;2023-07-13T01:39:59;15.40;99.90
48666;DHT22;34452;50.796;4.994;2023-07-13T01:42:25;15.40;99.90
48666;DHT22;34452;50.796;4.994;2023-07-13T01:44:51;15.40;99.90
48666;DHT22;34452;50.796;4.994;2023-07-13T01:47:16;15.40;99.90
48666;DHT22;34452;50.796;4.994;2023-07-13T01:49:42;15.40;99.90
48666;DHT22;34452;50.796;4.994;2023-07-13T01:52:08;15.30;99.90
48666;DHT22;34452;50.796;4.994;2023-07-13T01:54:33;15.40;99.90
48666;DHT22;34452;50.796;4.994;2023-07-13T01:56:59;15.40;99.90
48666;DHT22;34452;50.796;4.994;2023-07-13T01:59:25;15.30;99.90
48666;DHT22;34452;50.796;4.994;2023-07-13T02:01:51;15.30;99.90
48666;DHT22;34452;50.796;4.994;2023-07-13T02:04:17;15.30;99.90
48666;DHT22;34452;50.796;4.994;2023-07-13T02:06:42;15.40;99.90
48666;DHT22;34452;50.796;4.994;2023-07-13T02:09:08;15.40;99.90
48666;DHT22;34452;50.796;4.994;2023-07-13T02:11:34;15.30;99.90
48666;DHT22;34452;50.796;4.994;2023-07-13T02:14:01;15.30;99.90
48666;DHT22;34452;50.796;4.994;2023-07-13T02:16:29;15.30;99.90
48666;DHT22;34452;50.796;4.994;2023-07-13T02:18:54;15.30;99.90
48666;DHT22;34452;50.796;4.994;2023-07-13T02:21:22;15.30;99.90
48666;DHT22;34452;50.796;4.994;2023-07-13T02:23:49;15.30;99.90
48666;DHT22;34452;50.796;4.994;2023-07-13T02:26:15;15.30;99.90
48666;DHT22;34452;50.796;4.994;2023-07-13T02:28:40;15.30;99.90
48666;DHT22;34452;50.796;4.994;2023-07-13T02:31:25;15.20;99.90
48666;DHT22;34452;50.796;4.994;2023-07-13T02:33:50;15.20;99.90
48666;DHT22;34452;50.796;4.994;2023-07-13T02:36:16;15.10;99.90
48666;DHT22;34452;50.796;4.994;2023-07-13T02:38:42;15.10;99.90
48666;DHT22;34452;50.796;4.994;2023-07-13T02:41:09;15.10;99.90
48666;DHT22;34452;50.796;4.994;2023-07-13T02:43:36;15.10;99.90
48666;DHT22;34452;50.796;4.994;2023-07-13T02:46:02;15.00;99.90
48666;DHT22;34452;50.796;4.994;2023-07-13T02:48:46;15.00;99.90
48666;DHT22;34452;50.796;4.994;2023-07-13T02:51:11;15.00;99.90
48666;DHT22;34452;50.796;4.994;2023-07-13T02:53:37;15.00;99.90
48666;DHT22;34452;50.796;4.994;2023-07-13T02:56:04;14.90;99.90
48666;DHT22;34452;50.796;4.994;2023-07-13T02:58:30;14.90;99.90
48666;DHT22;34452;50.796;4.994;2023-07-13T03:00:56;14.90;99.90
48666;DHT22;34452;50.796;4.994;2023-07-13T03:03:23;14.90;99.90
48666;DHT22;34452;50.796;4.994;2023-07-13T03:05:58;14.90;99.90
48666;DHT22;34452;50.796;4.994;2023-07-13T03:08:25;14.90;99.90
48666;DHT22;34452;50.796;4.994;2023-07-13T03:11:10;14.90;99.90
48666;DHT22;34452;50.796;4.994;2023-07-13T03:13:37;14.90;99.90
48666;DHT22;34452;50.796;4.994;2023-07-13T03:16:04;14.90;99.90
48666;DHT22;34452;50.796;4.994;2023-07-13T03:18:30;14.90;99.90
48666;DHT22;34452;50.796;4.994;2023-07-13T03:20:55;15.00;99.90
48666;DHT22;34452;50.796;4.994;2023-07-13T03:23:22;15.00;99.90
48666;DHT22;34452;50.796;4.994;2023-07-13T03:25:47;15.00;99.90
48666;DHT22;34452;50.796;4.994;2023-07-13T03:28:14;15.00;99.90
48666;DHT22;34452;50.796;4.994;2023-07-13T03:30:40;15.00;99.90
48666;DHT22;34452;50.796;4.994;2023-07-13T03:33:06;15.00;99.90
48666;DHT22;34452;50.796;4.994;2023-07-13T03:35:31;15.00;99.90
48666;DHT22;34452;50.796;4.994;2023-07-13T03:37:58;15.00;99.90
48666;DHT22;34452;50.796;4.994;2023-07-13T03:40:25;15.00;99.90
48666;DHT22;34452;50.796;4.994;2023-07-13T03:42:52;14.90;99.90
48666;DHT22;34452;50.796;4.994;2023-07-13T03:45:18;15.00;99.90
48666;DHT22;34452;50.796;4.994;2023-07-13T03:47:44;15.00;99.90
48666;DHT22;34452;50.796;4.994;2023-07-13T03:50:10;15.00;99.90
48666;DHT22;34452;50.796;4.994;2023-07-13T03:52:36;15.00;99.90
48666;DHT22;34452;50.796;4.994;2023-07-13T03:55:02;14.90;99.90
48666;DHT22;34452;50.796;4.994;2023-07-13T03:57:28;14.90;99.90
48666;DHT22;34452;50.796;4.994;2023-07-13T03:59:54;14.90;99.90
48666;DHT22;34452;50.796;4.994;2023-07-13T04:02:20;14.90;99.90
48666;DHT22;34452;50.796;4.994;2023-07-13T04:04:46;14.90;99.90
48666;DHT22;34452;50.796;4.994;2023-07-13T04:07:12;14.80;99.90
48666;DHT22;34452;50.796;4.994;2023-07-13T04:09:38;14.80;99.90
48666;DHT22;34452;50.796;4.994;2023-07-13T04:12:04;14.80;99.90
48666;DHT22;34452;50.796;4.994;2023-07-13T04:14:30;14.90;99.90
48666;DHT22;34452;50.796;4.994;2023-07-13T04:16:56;14.90;99.90
48666;DHT22;34452;50.796;4.994;2023-07-13T04:19:21;14.90;99.90
48666;DHT22;34452;50.796;4.994;2023-07-13T04:21:47;14.90;99.90
48666;DHT22;34452;50.796;4.994;2023-07-13T04:24:13;14.90;99.90
48666;DHT22;34452;50.796;4.994;2023-07-13T04:26:39;15.00;99.90
48666;DHT22;34452;50.796;4.994;2023-07-13T04:29:06;15.10;99.90
48666;DHT22;34452;50.796;4.994;2023-07-13T04:31:32;15.20;99.90
48666;DHT22;34452;50.796;4.994;2023-07-13T04:33:58;15.30;99.90
48666;DHT22;34452;50.796;4.994;2023-07-13T04:36:24;15.40;99.90
48666;DHT22;34452;50.796;4.994;2023-07-13T04:38:52;15.40;99.90
48666;DHT22;34452;50.796;4.994;2023-07-13T04:41:20;15.50;99.90
48666;DHT22;34452;50.796;4.994;2023-07-13T04:43:46;15.50;99.90
48666;DHT22;34452;50.796;4.994;2023-07-13T04:46:13;15.60;99.90
48666;DHT22;34452;50.796;4.994;2023-07-13T04:48:39;15.70;99.90
48666;DHT22;34452;50.796;4.994;2023-07-13T04:51:05;15.80;99.90
48666;DHT22;34452;50.796;4.994;2023-07-13T04:53:32;15.80;99.90
48666;DHT22;34452;50.796;4.994;2023-07-13T04:56:00;15.90;99.90
48666;DHT22;34452;50.796;4.994;2023-07-13T04:58:27;15.90;99.90
48666;DHT22;34452;50.796;4.994;2023-07-13T05:00:53;16.00;99.90
48666;DHT22;34452;50.796;4.994;2023-07-13T05:03:24;16.00;99.90
48666;DHT22;34452;50.796;4.994;2023-07-13T05:06:08;16.00;99.90
48666;DHT22;34452;50.796;4.994;2023-07-13T05:08:35;16.10;99.90
48666;DHT22;34452;50.796;4.994;2023-07-13T05:11:02;16.10;99.90
48666;DHT22;34452;50.796;4.994;2023-07-13T05:13:29;16.10;99.90
48666;DHT22;34452;50.796;4.994;2023-07-13T05:15:58;16.20;99.90
48666;DHT22;34452;50.796;4.994;2023-07-13T05:18:24;16.20;99.90
48666;DHT22;34452;50.796;4.994;2023-07-13T05:21:08;16.30;99.90
48666;DHT22;34452;50.796;4.994;2023-07-13T05:23:35;16.30;99.90
48666;DHT22;34452;50.796;4.994;2023-07-13T05:26:02;16.40;99.90
48666;DHT22;34452;50.796;4.994;2023-07-13T05:28:29;16.40;99.90
48666;DHT22;34452;50.796;4.994;2023-07-13T05:30:55;16.40;99.90
48666;DHT22;34452;50.796;4.994;2023-07-13T05:33:22;16.50;99.90
48666;DHT22;34452;50.796;4.994;2023-07-13T05:35:47;16.50;99.90
48666;DHT22;34452;50.796;4.994;2023-07-13T05:38:13;16.50;99.90
48666;DHT22;34452;50.796;4.994;2023-07-13T05:40:39;16.60;99.90
48666;DHT22;34452;50.796;4.994;2023-07-13T05:43:07;16.70;99.90
48666;DHT22;34452;50.796;4.994;2023-07-13T05:45:33;16.70;99.90
48666;DHT22;34452;50.796;4.994;2023-07-13T05:47:58;16.70;99.90
48666;DHT22;34452;50.796;4.994;2023-07-13T05:50:26;16.80;99.90
48666;DHT22;34452;50.796;4.994;2023-07-13T05:52:51;16.80;99.90
48666;DHT22;34452;50.796;4.994;2023-07-13T05:55:18;16.90;99.90
48666;DHT22;34452;50.796;4.994;2023-07-13T05:57:44;16.90;99.90
48666;DHT22;34452;50.796;4.994;2023-07-13T06:00:10;17.00;99.90
48666;DHT22;34452;50.796;4.994;2023-07-13T06:02:36;17.00;99.90
48666;DHT22;34452;50.796;4.994;2023-07-13T06:05:02;17.10;99.90
48666;DHT22;34452;50.796;4.994;2023-07-13T06:07:28;17.10;99.90
48666;DHT22;34452;50.796;4.994;2023-07-13T06:09:54;17.10;99.90
48666;DHT22;34452;50.796;4.994;2023-07-13T06:12:19;17.10;99.90
48666;DHT22;34452;50.796;4.994;2023-07-13T06:14:45;17.10;99.90
48666;DHT22;34452;50.796;4.994;2023-07-13T06:17:11;17.20;99.90
48666;DHT22;34452;50.796;4.994;2023-07-13T06:19:37;17.20;99.90
48666;DHT22;34452;50.796;4.994;2023-07-13T06:22:02;17.40;99.90
48666;DHT22;34452;50.796;4.994;2023-07-13T06:24:28;17.40;99.90
48666;DHT22;34452;50.796;4.994;2023-07-13T06:26:54;17.50;99.90
48666;DHT22;34452;50.796;4.994;2023-07-13T06:29:20;17.60;99.90
48666;DHT22;34452;50.796;4.994;2023-07-13T06:31:45;17.50;99.90
48666;DHT22;34452;50.796;4.994;2023-07-13T06:34:11;17.60;99.90
48666;DHT22;34452;50.796;4.994;2023-07-13T06:36:37;17.60;99.90
48666;DHT22;34452;50.796;4.994;2023-07-13T06:39:04;17.60;99.90
48666;DHT22;34452;50.796;4.994;2023-07-13T06:41:31;17.60;99.90
48666;DHT22;34452;50.796;4.994;2023-07-13T06:43:58;17.60;99.90
48666;DHT22;34452;50.796;4.994;2023-07-13T06:46:24;17.60;99.90
48666;DHT22;34452;50.796;4.994;2023-07-13T06:48:50;17.60;99.90
48666;DHT22;34452;50.796;4.994;2023-07-13T06:51:16;17.70;99.90
48666;DHT22;34452;50.796;4.994;2023-07-13T06:53:42;17.70;99.90
48666;DHT22;34452;50.796;4.994;2023-07-13T06:56:09;17.80;99.90
48666;DHT22;34452;50.796;4.994;2023-07-13T06:58:36;17.80;99.90
48666;DHT22;34452;50.796;4.994;2023-07-13T07:01:03;17.80;99.90
48666;DHT22;34452;50.796;4.994;2023-07-13T07:03:29;17.90;99.90
48666;DHT22;34452;50.796;4.994;2023-07-13T07:06:13;17.90;99.90
48666;DHT22;34452;50.796;4.994;2023-07-13T07:08:40;18.00;99.90
48666;DHT22;34452;50.796;4.994;2023-07-13T07:11:09;18.00;99.90
48666;DHT22;34452;50.796;4.994;2023-07-13T07:13:35;18.00;99.90
48666;DHT22;34452;50.796;4.994;2023-07-13T07:16:01;18.10;99.90
48666;DHT22;34452;50.796;4.994;2023-07-13T07:18:26;18.10;99.90
48666;DHT22;34452;50.796;4.994;2023-07-13T07:20:52;18.10;99.90
48666;DHT22;34452;50.796;4.994;2023-07-13T07:23:18;18.20;99.90
48666;DHT22;34452;50.796;4.994;2023-07-13T07:25:44;18.30;99.90
48666;DHT22;34452;50.796;4.994;2023-07-13T07:28:15;18.30;99.90
48666;DHT22;34452;50.796;4.994;2023-07-13T07:30:44;18.40;99.90
48666;DHT22;34452;50.796;4.994;2023-07-13T07:33:10;18.40;99.90
48666;DHT22;34452;50.796;4.994;2023-07-13T07:35:36;18.50;99.90
48666;DHT22;34452;50.796;4.994;2023-07-13T07:38:02;18.40;99.90
48666;DHT22;34452;50.796;4.994;2023-07-13T07:40:27;18.50;99.90
48666;DHT22;34452;50.796;4.994;2023-07-13T07:42:53;18.60;99.90
48666;DHT22;34452;50.796;4.994;2023-07-13T07:45:20;18.70;99.90
48666;DHT22;34452;50.796;4.994;2023-07-13T07:47:45;18.80;99.90
48666;DHT22;34452;50.796;4.994;2023-07-13T07:50:12;18.80;99.90
48666;DHT22;34452;50.796;4.994;2023-07-13T07:52:37;18.80;99.90
48666;DHT22;34452;50.796;4.994;2023-07-13T07:55:05;18.90;99.90
48666;DHT22;34452;50.796;4.994;2023-07-13T07:57:31;19.10;99.90
48666;DHT22;34452;50.796;4.994;2023-07-13T07:59:57;19.20;99.90
48666;DHT22;34452;50.796;4.994;2023-07-13T08:02:24;19.20;99.90
48666;DHT22;34452;50.796;4.994;2023-07-13T08:04:50;19.30;99.90
48666;DHT22;34452;50.796;4.994;2023-07-13T08:07:16;19.30;99.90
48666;DHT22;34452;50.796;4.994;2023-07-13T08:09:42;19.30;99.90
48666;DHT22;34452;50.796;4.994;2023-07-13T08:12:08;19.30;99.90
48666;DHT22;34452;50.796;4.994;2023-07-13T08:14:33;19.30;99.90
48666;DHT22;34452;50.796;4.994;2023-07-13T08:16:59;19.40;99.90
48666;DHT22;34452;50.796;4.994;2023-07-13T08:19:25;19.50;99.90
48666;DHT22;34452;50.796;4.994;2023-07-13T08:21:50;19.50;99.90
48666;DHT22;34452;50.796;4.994;2023-07-13T08:24:16;19.50;99.90
48666;DHT22;34452;50.796;4.994;2023-07-13T08:26:44;19.50;99.90
48666;DHT22;34452;50.796;4.994;2023-07-13T08:29:11;19.50;99.90
48666;DHT22;34452;50.796;4.994;2023-07-13T08:31:37;19.60;99.90
48666;DHT22;34452;50.796;4.994;2023-07-13T08:34:03;19.60;99.90
48666;DHT22;34452;50.796;4.994;2023-07-13T08:36:29;19.60;99.90
48666;DHT22;34452;50.796;4.994;2023-07-13T08:38:55;19.60;99.90
48666;DHT22;34452;50.796;4.994;2023-07-13T08:41:21;19.60;99.90
48666;DHT22;34452;50.796;4.994;2023-07-13T08:43:51;19.70;99.90
48666;DHT22;34452;50.796;4.994;2023-07-13T08:46:33;19.70;99.90
48666;DHT22;34452;50.796;4.994;2023-07-13T08:49:05;19.70;99.90
48666;DHT22;34452;50.796;4.994;2023-07-13T08:51:51;19.80;99.90
48666;DHT22;34452;50.796;4.994;2023-07-13T08:54:28;19.90;99.90
48666;DHT22;34452;50.796;4.994;2023-07-13T08:56:56;20.00;99.90
48666;DHT22;34452;50.796;4.994;2023-07-13T08:59:26;20.00;99.90
48666;DHT22;34452;50.796;4.994;2023-07-13T09:01:57;20.00;99.90
48666;DHT22;34452;50.796;4.994;2023-07-13T09:04:29;20.00;99.90
48666;DHT22;34452;50.796;4.994;2023-07-13T09:07:18;20.00;99.90
48666;DHT22;34452;50.796;4.994;2023-07-13T09:09:48;20.00;99.90
48666;DHT22;34452;50.796;4.994;2023-07-13T09:12:24;20.10;99.90
48666;DHT22;34452;50.796;4.994;2023-07-13T09:14:53;20.30;99.90
48666;DHT22;34452;50.796;4.994;2023-07-13T09:17:25;20.40;99.90
48666;DHT22;34452;50.796;4.994;2023-07-13T09:20:00;20.60;99.90
48666;DHT22;34452;50.796;4.994;2023-07-13T09:22:33;20.50;99.90
48666;DHT22;34452;50.796;4.994;2023-07-13T09:25:06;20.60;99.90
48666;DHT22;34452;50.796;4.994;2023-07-13T09:27:40;20.60;99.90
48666;DHT22;34452;50.796;4.994;2023-07-13T09:33:03;20.40;99.90
48666;DHT22;34452;50.796;4.994;2023-07-13T09:35:29;20.50;99.90
48666;DHT22;34452;50.796;4.994;2023-07-13T09:37:59;20.50;99.90
48666;DHT22;34452;50.796;4.994;2023-07-13T09:43:18;20.40;99.90
48666;DHT22;34452;50.796;4.994;2023-07-13T09:45:46;20.40;99.90
48666;DHT22;34452;50.796;4.994;2023-07-13T09:48:15;20.50;99.90
48666;DHT22;34452;50.796;4.994;2023-07-13T09:50:42;20.50;99.90
48666;DHT22;34452;50.796;4.994;2023-07-13T09:53:26;20.50;99.90
48666;DHT22;34452;50.796;4.994;2023-07-13T09:55:56;20.70;99.90
48666;DHT22;34452;50.796;4.994;2023-07-13T09:58:24;20.80;99.90
48666;DHT22;34452;50.796;4.994;2023-07-13T10:01:02;20.90;99.90
48666;DHT22;34452;50.796;4.994;2023-07-13T10:03:30;21.00;99.90
48666;DHT22;34452;50.796;4.994;2023-07-13T10:08:52;21.20;99.90
48666;DHT22;34452;50.796;4.994;2023-07-13T10:11:22;21.60;99.90
48666;DHT22;34452;50.796;4.994;2023-07-13T10:16:58;22.20;99.90
48666;DHT22;34452;50.796;4.994;2023-07-13T10:19:27;22.00;99.90
48666;DHT22;34452;50.796;4.994;2023-07-13T10:21:59;22.00;99.90
48666;DHT22;34452;50.796;4.994;2023-07-13T10:24:27;22.00;99.90
48666;DHT22;34452;50.796;4.994;2023-07-13T10:29:59;22.00;99.90
48666;DHT22;34452;50.796;4.994;2023-07-13T10:32:27;22.00;99.90
48666;DHT22;34452;50.796;4.994;2023-07-13T10:34:53;22.30;99.90
48666;DHT22;34452;50.796;4.994;2023-07-13T10:37:24;22.20;99.90
48666;DHT22;34452;50.796;4.994;2023-07-13T10:39:53;22.10;99.90
48666;DHT22;34452;50.796;4.994;2023-07-13T10:42:35;21.80;99.90
48666;DHT22;34452;50.796;4.994;2023-07-13T10:45:14;21.60;99.90
48666;DHT22;34452;50.796;4.994;2023-07-13T10:47:40;21.30;99.90
48666;DHT22;34452;50.796;4.994;2023-07-13T10:50:08;21.20;99.90
48666;DHT22;34452;50.796;4.994;2023-07-13T10:58:44;21.60;99.90
48666;DHT22;34452;50.796;4.994;2023-07-13T11:03:46;21.90;99.90
48666;DHT22;34452;50.796;4.994;2023-07-13T11:08:56;21.90;99.60
48666;DHT22;34452;50.796;4.994;2023-07-13T11:21:34;23.00;97.60
48666;DHT22;34452;50.796;4.994;2023-07-13T11:26:41;23.30;95.10
48666;DHT22;34452;50.796;4.994;2023-07-13T11:29:32;23.30;94.30
48666;DHT22;34452;50.796;4.994;2023-07-13T11:32:01;23.10;94.10
48666;DHT22;34452;50.796;4.994;2023-07-13T11:34:31;22.90;94.90
48666;DHT22;34452;50.796;4.994;2023-07-13T11:37:00;22.90;95.70
48666;DHT22;34452;50.796;4.994;2023-07-13T11:39:36;23.00;95.10
48666;DHT22;34452;50.796;4.994;2023-07-13T11:42:07;23.20;94.50
48666;DHT22;34452;50.796;4.994;2023-07-13T11:44:35;23.40;92.60
48666;DHT22;34452;50.796;4.994;2023-07-13T11:47:08;23.30;92.60
48666;DHT22;34452;50.796;4.994;2023-07-13T11:49:42;23.10;93.10
48666;DHT22;34452;50.796;4.994;2023-07-13T11:52:13;23.00;93.40
48666;DHT22;34452;50.796;4.994;2023-07-13T11:54:49;23.10;94.00
48666;DHT22;34452;50.796;4.994;2023-07-13T11:57:37;23.20;93.80
48666;DHT22;34452;50.796;4.994;2023-07-13T12:00:15;23.60;93.20
48666;DHT22;34452;50.796;4.994;2023-07-13T12:02:44;24.00;91.40
48666;DHT22;34452;50.796;4.994;2023-07-13T12:05:12;24.10;90.70
48666;DHT22;34452;50.796;4.994;2023-07-13T12:07:39;24.10;90.90
48666;DHT22;34452;50.796;4.994;2023-07-13T12:13:10;24.70;88.30
48666;DHT22;34452;50.796;4.994;2023-07-13T12:15:40;25.00;87.30
48666;DHT22;34452;50.796;4.994;2023-07-13T12:18:28;25.20;80.10
48666;DHT22;34452;50.796;4.994;2023-07-13T12:20:57;25.30;80.90
48666;DHT22;34452;50.796;4.994;2023-07-13T12:26:07;25.40;79.40
48666;DHT22;34452;50.796;4.994;2023-07-13T12:28:51;25.20;76.10
48666;DHT22;34452;50.796;4.994;2023-07-13T12:31:41;24.90;75.90
48666;DHT22;34452;50.796;4.994;2023-07-13T12:36:59;24.70;80.00
48666;DHT22;34452;50.796;4.994;2023-07-13T12:39:33;24.40;77.50
48666;DHT22;34452;50.796;4.994;2023-07-13T12:42:28;24.20;78.00
48666;DHT22;34452;50.796;4.994;2023-07-13T12:47:58;23.70;77.80
48666;DHT22;34452;50.796;4.994;2023-07-13T12:50:30;23.50;78.00
48666;DHT22;34452;50.796;4.994;2023-07-13T12:53:02;23.10;78.60
48666;DHT22;34452;50.796;4.994;2023-07-13T12:55:29;23.00;78.80
48666;DHT22;34452;50.796;4.994;2023-07-13T12:57:59;22.70;79.00
48666;DHT22;34452;50.796;4.994;2023-07-13T13:00:38;22.60;81.00
48666;DHT22;34452;50.796;4.994;2023-07-13T13:03:20;22.40;83.30
48666;DHT22;34452;50.796;4.994;2023-07-13T13:05:47;22.30;84.50
48666;DHT22;34452;50.796;4.994;2023-07-13T13:08:13;22.30;84.10
48666;DHT22;34452;50.796;4.994;2023-07-13T13:10:39;22.40;83.10
48666;DHT22;34452;50.796;4.994;2023-07-13T13:13:04;22.60;84.80
48666;DHT22;34452;50.796;4.994;2023-07-13T13:15:30;22.70;84.40
48666;DHT22;34452;50.796;4.994;2023-07-13T13:17:56;22.80;85.00
48666;DHT22;34452;50.796;4.994;2023-07-13T13:20:24;22.80;81.40
48666;DHT22;34452;50.796;4.994;2023-07-13T13:22:51;22.90;80.20
48666;DHT22;34452;50.796;4.994;2023-07-13T13:25:18;22.90;81.30
48666;DHT22;34452;50.796;4.994;2023-07-13T13:27:44;22.80;81.10
48666;DHT22;34452;50.796;4.994;2023-07-13T13:30:12;22.70;80.10
48666;DHT22;34452;50.796;4.994;2023-07-13T13:32:40;22.50;78.50
48666;DHT22;34452;50.796;4.994;2023-07-13T13:35:14;22.30;78.50
48666;DHT22;34452;50.796;4.994;2023-07-13T13:37:40;22.40;81.20
48666;DHT22;34452;50.796;4.994;2023-07-13T13:40:19;22.60;81.90
48666;DHT22;34452;50.796;4.994;2023-07-13T13:42:45;22.70;88.30
48666;DHT22;34452;50.796;4.994;2023-07-13T13:45:13;22.60;91.40
48666;DHT22;34452;50.796;4.994;2023-07-13T13:47:39;22.40;91.60
48666;DHT22;34452;50.796;4.994;2023-07-13T13:50:24;22.10;91.80
48666;DHT22;34452;50.796;4.994;2023-07-13T13:52:50;22.00;93.00
48666;DHT22;34452;50.796;4.994;2023-07-13T13:55:19;21.80;92.20
48666;DHT22;34452;50.796;4.994;2023-07-13T13:57:46;21.80;92.10
48666;DHT22;34452;50.796;4.994;2023-07-13T14:00:12;22.10;91.90
48666;DHT22;34452;50.796;4.994;2023-07-13T14:02:41;22.40;91.40
48666;DHT22;34452;50.796;4.994;2023-07-13T14:05:13;22.70;90.90
48666;DHT22;34452;50.796;4.994;2023-07-13T14:07:39;22.70;90.50
48666;DHT22;34452;50.796;4.994;2023-07-13T14:10:12;22.80;91.40
48666;DHT22;34452;50.796;4.994;2023-07-13T14:12:39;22.90;91.40
48666;DHT22;34452;50.796;4.994;2023-07-13T14:15:04;23.10;90.40
48666;DHT22;34452;50.796;4.994;2023-07-13T14:17:31;23.40;91.00
48666;DHT22;34452;50.796;4.994;2023-07-13T14:19:58;23.60;90.50
48666;DHT22;34452;50.796;4.994;2023-07-13T14:22:24;23.70;90.60
48666;DHT22;34452;50.796;4.994;2023-07-13T14:24:53;23.90;90.00
48666;DHT22;34452;50.796;4.994;2023-07-13T14:27:20;24.40;85.90
48666;DHT22;34452;50.796;4.994;2023-07-13T14:29:46;24.40;85.00
48666;DHT22;34452;50.796;4.994;2023-07-13T14:32:12;24.40;84.70
48666;DHT22;34452;50.796;4.994;2023-07-13T14:34:39;24.30;84.40
48666;DHT22;34452;50.796;4.994;2023-07-13T14:37:05;24.30;84.40
48666;DHT22;34452;50.796;4.994;2023-07-13T14:39:31;24.20;83.80
48666;DHT22;34452;50.796;4.994;2023-07-13T14:41:57;23.80;83.60
48666;DHT22;34452;50.796;4.994;2023-07-13T14:44:25;23.70;84.60
48666;DHT22;34452;50.796;4.994;2023-07-13T14:46:52;24.00;86.20
48666;DHT22;34452;50.796;4.994;2023-07-13T14:49:36;24.30;85.50
48666;DHT22;34452;50.796;4.994;2023-07-13T14:52:16;24.70;82.80
48666;DHT22;34452;50.796;4.994;2023-07-13T14:54:43;25.00;81.90
48666;DHT22;34452;50.796;4.994;2023-07-13T14:57:12;25.10;83.20
48666;DHT22;34452;50.796;4.994;2023-07-13T14:59:38;25.30;79.00
48666;DHT22;34452;50.796;4.994;2023-07-13T15:04:41;25.00;79.50
48666;DHT22;34452;50.796;4.994;2023-07-13T15:07:10;25.20;78.60
48666;DHT22;34452;50.796;4.994;2023-07-13T15:09:36;25.10;74.10
48666;DHT22;34452;50.796;4.994;2023-07-13T15:12:02;24.60;75.80
48666;DHT22;34452;50.796;4.994;2023-07-13T15:14:28;24.40;76.10
48666;DHT22;34452;50.796;4.994;2023-07-13T15:16:55;24.20;75.00
48666;DHT22;34452;50.796;4.994;2023-07-13T15:19:22;24.10;74.40
48666;DHT22;34452;50.796;4.994;2023-07-13T15:21:49;23.80;75.00
48666;DHT22;34452;50.796;4.994;2023-07-13T15:24:15;23.70;74.30
48666;DHT22;34452;50.796;4.994;2023-07-13T15:26:42;23.50;75.40
48666;DHT22;34452;50.796;4.994;2023-07-13T15:29:11;23.40;74.90
48666;DHT22;34452;50.796;4.994;2023-07-13T15:31:37;23.10;75.60
48666;DHT22;34452;50.796;4.994;2023-07-13T15:34:11;23.00;77.10
48666;DHT22;34452;50.796;4.994;2023-07-13T15:36:38;22.90;77.70
48666;DHT22;34452;50.796;4.994;2023-07-13T15:39:04;22.60;78.10
48666;DHT22;34452;50.796;4.994;2023-07-13T15:41:32;22.60;79.40
48666;DHT22;34452;50.796;4.994;2023-07-13T15:43:59;22.50;80.20
48666;DHT22;34452;50.796;4.994;2023-07-13T15:46:27;22.40;79.30
48666;DHT22;34452;50.796;4.994;2023-07-13T15:48:54;22.40;79.40
48666;DHT22;34452;50.796;4.994;2023-07-13T15:51:24;22.30;79.50
48666;DHT22;34452;50.796;4.994;2023-07-13T15:53:53;22.30;80.20
48666;DHT22;34452;50.796;4.994;2023-07-13T15:56:23;22.20;80.40
48666;DHT22;34452;50.796;4.994;2023-07-13T15:58:50;22.20;82.10
48666;DHT22;34452;50.796;4.994;2023-07-13T16:01:17;22.20;80.80
48666;DHT22;34452;50.796;4.994;2023-07-13T16:03:43;22.10;81.70
48666;DHT22;34452;50.796;4.994;2023-07-13T16:06:29;22.20;82.00
48666;DHT22;34452;50.796;4.994;2023-07-13T16:08:57;22.10;83.00
48666;DHT22;34452;50.796;4.994;2023-07-13T16:11:24;22.10;84.30
48666;DHT22;34452;50.796;4.994;2023-07-13T16:13:51;22.10;84.30
48666;DHT22;34452;50.796;4.994;2023-07-13T16:16:22;22.10;83.70
48666;DHT22;34452;50.796;4.994;2023-07-13T16:19:04;22.00;84.90
48666;DHT22;34452;50.796;4.994;2023-07-13T16:21:35;22.00;84.00
48666;DHT22;34452;50.796;4.994;2023-07-13T16:24:02;22.00;84.90
48666;DHT22;34452;50.796;4.994;2023-07-13T16:26:32;22.10;85.10
48666;DHT22;34452;50.796;4.994;2023-07-13T16:29:21;22.40;83.90
48666;DHT22;34452;50.796;4.994;2023-07-13T16:32:06;22.70;84.70
48666;DHT22;34452;50.796;4.994;2023-07-13T16:34:35;22.90;82.90
48666;DHT22;34452;50.796;4.994;2023-07-13T16:37:02;23.20;82.80